Time;durP1;ratioP1;P1;durP2;ratioP2;P2;SDS_P1;SDS_P2;PMS_P1;PMS_P2;Temp;Humidity;BMP_temperature;BMP_pressure;BME280_temperature;BME280_humidity;BME280_pressure;Samples;Min_cycle;Max_cycle;Signal;HPM_P1;HPM_P2
2022/05/12 00:00:04;;;;;;;13.75;10.75;;;;;;;12.18;81.45;97870.28;1721376;80;21703;-82
2022/05/12 00:02:32;;;;;;;14.80;10.10;;;;;;;12.17;81.10;97870.58;1730563;80;21001;-82
2022/05/12 00:04:59;;;;;;;11.80;9.20;;;;;;;12.14;81.73;97867.91;1728704;82;21029;-82
2022/05/12 00:07:25;;;;;;;12.80;10.08;;;;;;;12.10;81.07;97867.66;1715046;80;21069;-85
2022/05/12 00:09:51;;;;;;;13.40;9.65;;;;;;;12.10;80.47;97863.59;1728466;80;21038;-86
2022/05/12 00:12:17;;;;;;;12.82;10.20;;;;;;;12.12;80.19;97868.17;1720676;82;21028;-83
2022/05/12 00:14:43;;;;;;;13.90;9.33;;;;;;;12.08;81.57;97872.59;1743138;81;21319;-86
2022/05/12 00:17:09;;;;;;;15.10;9.60;;;;;;;12.05;81.42;97868.30;1743306;81;20846;-81
2022/05/12 00:19:35;;;;;;;11.28;8.88;;;;;;;11.97;81.37;97864.34;1743193;82;20993;-85
2022/05/12 00:22:01;;;;;;;15.35;10.43;;;;;;;11.92;82.92;97867.11;1743194;81;20885;-86
2022/05/12 00:24:27;;;;;;;18.05;10.05;;;;;;;11.91;81.58;97860.61;1738938;81;21509;-86
2022/05/12 00:26:53;;;;;;;15.05;11.57;;;;;;;11.90;81.46;97867.15;1741485;81;21319;-81
2022/05/12 00:29:19;;;;;;;12.95;9.83;;;;;;;11.86;82.74;97858.76;1736178;82;20950;-82
2022/05/12 00:31:46;;;;;;;13.78;9.85;;;;;;;11.80;83.70;97852.61;1706587;82;20950;-82
2022/05/12 00:34:12;;;;;;;14.28;10.25;;;;;;;11.77;82.31;97855.05;1724484;80;21015;-82
2022/05/12 00:36:38;;;;;;;13.65;10.43;;;;;;;11.74;82.44;97852.92;1728669;80;21195;-83
2022/05/12 00:39:04;;;;;;;14.20;9.80;;;;;;;11.74;81.02;97850.21;1720651;80;21008;-82
2022/05/12 00:41:30;;;;;;;17.45;11.78;;;;;;;11.71;82.08;97867.09;1743194;81;20925;-82
2022/05/12 00:44:02;;;;;;;13.88;10.53;;;;;;;11.68;84.15;97854.89;1720562;82;20980;-82
2022/05/12 00:46:35;;;;;;;14.03;10.63;;;;;;;11.64;84.23;97866.08;1703074;82;21542;-82
2022/05/12 00:49:28;;;;;;;11.00;9.23;;;;;;;11.58;82.46;97863.97;1707203;80;21549;-86
2022/05/12 00:52:09;;;;;;;15.45;9.83;;;;;;;11.47;86.96;97858.95;1743087;81;21473;-82
2022/05/12 00:54:41;;;;;;;13.62;10.45;;;;;;;11.38;88.13;97859.34;1723832;81;20997;-83
2022/05/12 00:57:08;;;;;;;16.52;10.68;;;;;;;11.24;88.51;97850.52;1742041;81;20950;-85
2022/05/12 00:59:35;;;;;;;13.95;10.98;;;;;;;11.18;87.50;97849.49;1718632;80;21625;-86
2022/05/12 01:02:02;;;;;;;15.40;10.95;;;;;;;11.19;88.63;97851.91;1727515;81;21025;-86
2022/05/12 01:04:29;;;;;;;14.00;11.12;;;;;;;11.16;85.06;97863.34;1742715;82;21157;-82
2022/05/12 01:06:55;;;;;;;14.03;10.18;;;;;;;11.16;85.06;97863.34;1744724;81;21024;-82
2022/05/12 01:09:21;;;;;;;16.97;11.10;;;;;;;11.15;84.89;97860.92;1743750;81;20973;-85
2022/05/12 01:11:48;;;;;;;14.33;10.65;;;;;;;11.14;86.46;97857.95;1722545;82;21572;-86
2022/05/12 01:14:14;;;;;;;12.90;10.40;;;;;;;11.14;88.01;97861.48;1733035;80;21164;-86
2022/05/12 01:16:50;;;;;;;12.75;10.10;;;;;;;11.14;87.52;97860.13;1723042;80;21641;-86
2022/05/12 01:19:23;;;;;;;13.78;10.50;;;;;;;11.12;88.70;97852.83;1728230;80;21605;-82
2022/05/12 01:21:49;;;;;;;13.05;9.93;;;;;;;11.05;87.83;97845.57;1728463;80;21030;-86
2022/05/12 01:24:16;;;;;;;14.00;10.58;;;;;;;11.05;87.83;97845.57;1743136;80;21027;-85
2022/05/12 01:26:42;;;;;;;14.93;10.15;;;;;;;11.06;86.44;97851.80;1728381;81;21107;-83
2022/05/12 01:29:08;;;;;;;13.65;10.20;;;;;;;10.98;89.54;97854.03;1704874;82;21134;-86
2022/05/12 01:31:34;;;;;;;17.65;11.15;;;;;;;11.01;88.20;97852.09;1703193;82;20958;-82
2022/05/12 01:34:01;;;;;;;15.45;11.15;;;;;;;10.98;88.38;97847.26;1687097;82;21023;-82
2022/05/12 01:36:27;;;;;;;13.55;10.40;;;;;;;10.96;87.98;97844.58;1695676;82;21094;-86
2022/05/12 01:38:53;;;;;;;13.30;10.48;;;;;;;10.94;89.60;97848.13;1740404;82;21560;-86
2022/05/12 01:41:19;;;;;;;13.43;11.00;;;;;;;10.90;89.74;97843.00;1728022;82;21062;-82
2022/05/12 01:43:45;;;;;;;16.27;11.00;;;;;;;10.88;89.04;97846.55;1723293;80;20927;-82
2022/05/12 01:46:11;;;;;;;14.00;10.90;;;;;;;10.86;88.16;97840.62;1728285;80;20919;-85
2022/05/12 01:48:37;;;;;;;12.65;10.40;;;;;;;10.83;88.12;97836.55;1728308;80;21477;-83
2022/05/12 01:51:03;;;;;;;12.88;10.55;;;;;;;10.83;89.26;97834.39;1728428;80;20975;-86
2022/05/12 01:53:30;;;;;;;16.90;10.98;;;;;;;10.84;89.06;97837.36;1728433;80;21644;-86
2022/05/12 01:55:57;;;;;;;12.98;10.53;;;;;;;10.84;89.14;97831.94;1728340;80;21034;-82
2022/05/12 01:58:23;;;;;;;12.55;9.05;;;;;;;10.81;90.19;97827.10;1728297;80;20999;-83
2022/05/12 02:00:49;;;;;;;13.55;9.95;;;;;;;10.74;89.55;97816.59;1732918;80;20867;-82
2022/05/12 02:03:15;;;;;;;17.00;10.82;;;;;;;10.77;87.55;97832.81;1716552;81;20990;-82
2022/05/12 02:05:41;;;;;;;13.55;10.20;;;;;;;10.81;87.45;97825.20;1709213;80;21955;-86
2022/05/12 02:08:08;;;;;;;12.65;9.63;;;;;;;10.82;88.45;97814.61;1718938;80;21395;-82
2022/05/12 02:10:37;;;;;;;12.45;9.10;;;;;;;10.82;86.57;97813.80;1743247;82;21105;-82
2022/05/12 02:13:07;;;;;;;;;;;;;;;10.84;87.35;97821.91;1745756;81;21433;-82
2022/05/12 02:15:33;;;;;;;12.68;10.10;;;;;;;10.81;87.61;97806.22;1707353;84;20168;-82
2022/05/12 02:17:59;;;;;;;11.90;9.55;;;;;;;10.91;87.65;97821.58;1732964;81;21162;-86
2022/05/12 02:20:25;;;;;;;13.48;9.18;;;;;;;10.90;89.21;97821.31;1721749;80;21628;-82
2022/05/12 02:22:50;;;;;;;10.85;8.60;;;;;;;10.85;90.36;97817.29;1722007;82;21465;-86
2022/05/12 02:25:17;;;;;;;16.02;9.53;;;;;;;10.85;88.92;97820.84;1748421;81;20952;-83
2022/05/12 02:27:45;;;;;;;10.50;8.50;;;;;;;10.83;90.90;97818.94;1711062;82;21113;-82
2022/05/12 02:30:15;;;;;;;18.17;9.28;;;;;;;10.89;88.34;97819.16;1718448;80;21333;-82
2022/05/12 02:32:41;;;;;;;12.75;9.13;;;;;;;10.95;87.65;97829.41;1736583;81;21470;-86
2022/05/12 02:35:09;;;;;;;12.28;8.95;;;;;;;10.97;89.62;97821.80;1721632;80;20888;-85
2022/05/12 02:37:34;;;;;;;11.97;8.70;;;;;;;11.01;88.05;97819.56;1716200;80;21042;-86
2022/05/12 02:40:00;;;;;;;12.05;9.13;;;;;;;10.98;89.88;97822.05;1736102;82;21678;-86
2022/05/12 02:42:26;;;;;;;12.65;8.58;;;;;;;10.93;89.62;97829.67;1704415;82;21788;-85
2022/05/12 02:44:52;;;;;;;15.65;10.95;;;;;;;10.83;90.77;97832.48;1715257;80;20887;-86
2022/05/12 02:47:19;;;;;;;14.40;8.73;;;;;;;10.84;89.30;97834.10;1728237;80;20918;-82
2022/05/12 02:49:45;;;;;;;19.98;10.10;;;;;;;10.83;89.63;97837.10;1728516;80;22430;-86
2022/05/12 02:52:11;;;;;;;11.65;8.95;;;;;;;10.84;88.11;97830.03;1716184;82;22376;-82
2022/05/12 02:54:37;;;;;;;10.88;8.30;;;;;;;10.81;88.07;97832.52;1732783;82;21162;-86
2022/05/12 02:57:04;;;;;;;14.43;9.13;;;;;;;10.82;88.18;97836.84;1725592;80;21783;-82
2022/05/12 02:59:30;;;;;;;12.63;9.73;;;;;;;10.83;88.55;97838.46;1710535;82;21029;-82
2022/05/12 03:01:56;;;;;;;12.53;9.48;;;;;;;10.84;87.91;97837.36;1703072;82;20907;-86
2022/05/12 03:04:21;;;;;;;15.53;10.05;;;;;;;10.80;90.29;97838.49;1705989;80;20891;-86
2022/05/12 03:06:47;;;;;;;11.15;8.58;;;;;;;10.77;89.47;97844.49;1734163;81;21321;-82
2022/05/12 03:09:13;;;;;;;13.53;9.80;;;;;;;10.77;89.60;97840.94;1720554;80;21576;-86
2022/05/12 03:11:39;;;;;;;10.53;8.85;;;;;;;10.74;89.12;97832.84;1728381;80;20966;-86
2022/05/12 03:14:05;;;;;;;14.35;10.20;;;;;;;10.75;89.86;97833.11;1728554;80;20840;-82
2022/05/12 03:16:31;;;;;;;18.55;9.85;;;;;;;10.65;90.07;97826.42;1728501;80;21007;-81
2022/05/12 03:18:57;;;;;;;14.25;10.50;;;;;;;10.65;90.07;97826.42;1727408;80;21296;-86
2022/05/12 03:21:23;;;;;;;13.08;9.18;;;;;;;10.65;90.55;97832.66;1721369;80;20974;-82
2022/05/12 03:23:50;;;;;;;15.05;9.80;;;;;;;10.58;91.05;97828.10;1738044;80;21017;-82
2022/05/12 03:26:16;;;;;;;15.75;10.13;;;;;;;10.58;90.18;97825.94;1725051;82;21037;-86
2022/05/12 03:28:42;;;;;;;12.05;8.50;;;;;;;10.60;89.39;97827.30;1732330;82;20905;-86
2022/05/12 03:31:08;;;;;;;13.35;9.30;;;;;;;10.60;88.97;97819.17;1743093;82;21098;-82
2022/05/12 03:33:35;;;;;;;15.78;10.53;;;;;;;10.53;89.59;97817.33;1725695;81;21427;-83
2022/05/12 03:36:01;;;;;;;11.15;9.98;;;;;;;10.55;88.91;97816.49;1713348;80;21019;-82
2022/05/12 03:38:27;;;;;;;13.38;11.18;;;;;;;10.58;89.50;97807.78;1728606;80;21553;-82
2022/05/12 03:40:53;;;;;;;22.30;10.88;;;;;;;10.67;88.75;97810.14;1718670;80;21596;-82
2022/05/12 03:46:04;;;;;;;15.13;10.65;;;;;;;11.25;88.11;97820.94;1747067;80;21005;-86
2022/05/12 03:48:32;;;;;;;14.25;10.25;;;;;;;11.24;87.05;97829.37;1742525;80;21024;-83
2022/05/12 03:50:58;;;;;;;17.37;9.68;;;;;;;11.23;86.82;97816.91;1718791;80;21030;-82
2022/05/12 03:53:27;;;;;;;18.80;9.63;;;;;;;11.35;87.10;97824.62;1735995;81;20993;-86
2022/05/12 03:55:52;;;;;;;19.23;9.78;;;;;;;11.47;86.71;97829.11;1733643;82;21132;-82
2022/05/12 03:58:18;;;;;;;13.78;10.68;;;;;;;11.62;86.52;97824.83;1720454;80;20935;-82
2022/05/12 04:00:44;;;;;;;19.57;11.18;;;;;;;11.76;86.36;97817.59;1720158;80;20970;-86
2022/05/12 04:03:10;;;;;;;19.95;12.15;;;;;;;11.97;85.95;97824.96;1734642;80;21033;-86
2022/05/12 04:05:36;;;;;;;24.72;11.38;;;;;;;12.09;85.36;97820.44;1718563;82;21576;-86
2022/05/12 04:08:02;;;;;;;17.00;11.22;;;;;;;12.23;85.40;97817.80;1712226;80;21153;-82
2022/05/12 04:10:29;;;;;;;13.58;9.83;;;;;;;12.34;85.30;97818.69;1734268;80;21486;-82
2022/05/12 04:12:55;;;;;;;10.63;8.48;;;;;;;12.46;84.92;97824.21;1710144;82;21038;-82
2022/05/12 04:15:21;;;;;;;11.88;8.65;;;;;;;12.49;84.57;97812.77;1718276;80;22126;-82
2022/05/12 04:18:02;;;;;;;16.15;9.25;;;;;;;12.58;84.18;97821.86;1724455;82;20991;-86
2022/05/12 04:20:30;;;;;;;15.90;8.95;;;;;;;12.65;83.94;97820.38;1706040;82;21316;-86
2022/05/12 04:22:56;;;;;;;14.35;8.80;;;;;;;12.73;83.53;97821.58;1702819;82;21013;-87
2022/05/12 04:25:22;;;;;;;12.98;8.43;;;;;;;12.78;83.49;97819.34;1727522;80;21095;-85
2022/05/12 04:27:48;;;;;;;12.20;7.85;;;;;;;12.90;83.23;97819.66;1713541;83;20950;-86
2022/05/12 04:30:15;;;;;;;14.10;8.58;;;;;;;13.01;83.00;97814.86;1721766;80;21033;-86
2022/05/12 04:32:41;;;;;;;11.90;8.28;;;;;;;13.13;82.82;97811.89;1716805;80;22030;-82
2022/05/12 04:35:12;;;;;;;10.80;8.35;;;;;;;13.26;82.44;97812.49;1728317;80;21026;-83
2022/05/12 04:37:48;;;;;;;15.75;8.10;;;;;;;13.44;82.37;97813.50;1716407;80;21451;-82
2022/05/12 04:40:29;;;;;;;17.07;8.45;;;;;;;13.63;81.95;97811.22;1688951;82;21133;-86
2022/05/12 04:42:56;;;;;;;15.88;9.00;;;;;;;13.80;81.42;97806.75;1663116;85;21083;-86
2022/05/12 04:45:24;;;;;;;15.60;8.70;;;;;;;13.95;81.17;97816.52;1740320;82;21979;-82
2022/05/12 04:47:50;;;;;;;11.48;7.90;;;;;;;14.10;80.83;97809.36;1727295;80;21088;-86
2022/05/12 04:50:26;;;;;;;23.62;10.00;;;;;;;14.33;79.89;97814.26;1721820;80;21066;-86
2022/05/12 04:52:52;;;;;;;19.57;11.33;;;;;;;14.55;80.00;97815.42;1722262;82;21014;-87
2022/05/12 04:55:18;;;;;;;16.82;7.95;;;;;;;14.83;79.42;97816.88;1726911;80;20994;-86
2022/05/12 04:57:46;;;;;;;15.43;8.23;;;;;;;15.12;78.16;97812.85;1743008;81;21325;-87
2022/05/12 05:00:18;;;;;;;12.57;7.33;;;;;;;15.45;76.12;97814.67;1743402;82;20995;-87
2022/05/12 05:02:44;;;;;;;11.70;7.20;;;;;;;15.78;75.91;97813.19;1737786;81;21052;-83
2022/05/12 05:05:10;;;;;;;9.50;6.87;;;;;;;16.11;74.16;97814.13;1730529;80;21006;-87
2022/05/12 05:07:37;;;;;;;11.22;7.17;;;;;;;16.39;72.70;97815.98;1733739;81;21505;-86
2022/05/12 05:10:04;;;;;;;13.13;5.95;;;;;;;16.69;69.89;97806.02;1743228;82;21032;-87
2022/05/12 05:12:30;;;;;;;9.68;5.85;;;;;;;16.97;69.50;97808.37;1734203;81;21516;-87
2022/05/12 05:14:56;;;;;;;7.70;5.42;;;;;;;17.36;68.06;97800.43;1727912;82;21069;-83
2022/05/12 05:17:23;;;;;;;16.42;5.85;;;;;;;17.83;66.11;97795.67;1729273;82;21002;-87
2022/05/12 05:19:51;;;;;;;9.70;5.60;;;;;;;18.25;65.98;97790.22;1708964;82;21070;-82
2022/05/12 05:22:17;;;;;;;8.03;6.28;;;;;;;18.61;64.47;97794.48;1726681;80;21476;-87
2022/05/12 05:24:43;;;;;;;7.72;5.55;;;;;;;18.90;63.06;97790.63;1725712;82;20981;-83
2022/05/12 05:27:09;;;;;;;9.48;5.20;;;;;;;19.15;62.70;97795.02;1714269;82;20918;-85
2022/05/12 05:29:40;;;;;;;8.05;5.47;;;;;;;19.46;60.82;97793.09;1733720;82;21013;-83
2022/05/12 05:32:09;;;;;;;9.33;4.58;;;;;;;19.74;60.27;97797.37;1743103;81;21008;-87
2022/05/12 05:34:35;;;;;;;10.20;4.67;;;;;;;20.05;58.78;97798.11;1743392;82;21703;-83
2022/05/12 05:37:01;;;;;;;8.20;4.92;;;;;;;20.37;56.70;97800.44;1716087;82;20914;-87
2022/05/12 05:39:27;;;;;;;9.05;4.72;;;;;;;20.68;56.04;97797.03;1731594;80;22370;-83
2022/05/12 05:41:59;;;;;;;5.60;4.60;;;;;;;20.93;54.74;97792.17;1743046;81;21013;-83
2022/05/12 05:44:28;;;;;;;8.55;4.50;;;;;;;21.13;54.09;97789.78;1721089;82;21045;-83
2022/05/12 05:46:53;;;;;;;6.37;3.87;;;;;;;21.33;53.68;97792.07;1705915;82;21121;-86
2022/05/12 05:49:18;;;;;;;7.45;4.42;;;;;;;21.57;53.85;97786.95;1725864;80;20856;-83
2022/05/12 05:54:31;;;;;;;7.15;4.58;;;;;;;21.89;52.68;97787.71;1728809;80;21006;-87
2022/05/12 05:56:56;;;;;;;4.87;4.07;;;;;;;22.09;52.27;97789.15;1725916;80;21013;-88
2022/05/12 05:59:22;;;;;;;6.65;4.17;;;;;;;22.25;50.29;97783.00;1734493;82;21248;-87
2022/05/12 06:01:49;;;;;;;5.00;4.00;;;;;;;22.34;49.98;97782.78;1721547;80;21020;-88
2022/05/12 06:04:17;;;;;;;7.25;4.08;;;;;;;22.42;50.26;97779.81;1731331;80;21441;-83
2022/05/12 06:06:44;;;;;;;6.75;3.95;;;;;;;22.55;50.36;97778.27;1734481;82;20994;-82
2022/05/12 06:09:12;;;;;;;6.83;4.15;;;;;;;22.66;49.60;97787.00;1722901;80;21048;-88
2022/05/12 06:11:41;;;;;;;8.60;4.33;;;;;;;22.76;48.03;97786.98;1732904;80;22265;-87
2022/05/12 06:14:07;;;;;;;11.00;4.30;;;;;;;22.85;47.77;97780.69;1731570;80;20995;-87
2022/05/12 06:16:33;;;;;;;6.50;4.17;;;;;;;22.94;47.36;97781.83;1723077;82;21127;-87
2022/05/12 06:18:59;;;;;;;7.15;3.30;;;;;;;23.04;46.98;97766.02;1717431;80;20945;-83
2022/05/12 06:21:25;;;;;;;7.53;5.37;;;;;;;23.17;47.10;97770.80;1709817;80;21009;-87
2022/05/12 06:23:51;;;;;;;8.30;3.70;;;;;;;23.31;46.70;97772.41;1720469;80;21330;-88
2022/05/12 06:26:17;;;;;;;6.85;3.90;;;;;;;23.42;46.10;97773.41;1735519;81;21083;-88
2022/05/12 06:28:46;;;;;;;7.97;3.83;;;;;;;23.52;45.82;97776.92;1723528;80;21354;-88
2022/05/12 06:31:15;;;;;;;17.27;5.20;;;;;;;23.67;44.84;97774.39;1716709;80;20994;-83
2022/05/12 06:33:41;;;;;;;;;;;;;;;23.80;45.24;97784.09;1723167;80;21055;-87
2022/05/12 06:36:07;;;;;;;8.43;4.42;;;;;;;23.89;43.41;97778.50;1712004;80;21071;-83
2022/05/12 06:38:34;;;;;;;6.08;3.67;;;;;;;23.99;44.46;97782.59;1729278;80;22292;-83
2022/05/12 06:41:01;;;;;;;10.20;4.28;;;;;;;24.14;43.65;97789.92;1723015;80;21558;-83
2022/05/12 06:43:27;;;;;;;12.90;4.20;;;;;;;24.23;43.26;97784.11;1730318;80;20985;-83
2022/05/12 06:45:55;;;;;;;5.37;3.65;;;;;;;24.42;43.67;97784.58;1735487;80;21156;-83
2022/05/12 06:48:22;;;;;;;8.95;3.90;;;;;;;24.55;42.38;97785.14;1733030;80;21120;-83
2022/05/12 06:50:48;;;;;;;4.22;3.60;;;;;;;24.67;42.45;97790.41;1735263;80;20973;-83
2022/05/12 06:53:14;;;;;;;10.65;4.45;;;;;;;24.78;41.90;97786.38;1734657;80;20869;-84
2022/05/12 06:55:40;;;;;;;6.37;3.75;;;;;;;24.91;40.84;97791.88;1696759;82;21409;-83
2022/05/12 06:58:06;;;;;;;8.83;4.40;;;;;;;25.20;40.84;97794.38;1704794;80;21608;-83
2022/05/12 07:00:32;;;;;;;6.12;3.85;;;;;;;25.54;40.43;97783.97;1735668;80;21794;-83
2022/05/12 07:02:58;;;;;;;8.25;3.67;;;;;;;25.73;40.22;97782.39;1715411;81;21422;-83
2022/05/12 07:05:25;;;;;;;8.55;3.90;;;;;;;25.93;40.61;97782.91;1733608;80;21741;-84
2022/05/12 07:07:51;;;;;;;7.03;3.33;;;;;;;26.06;39.21;97788.36;1734250;80;21087;-83
2022/05/12 07:10:19;;;;;;;5.37;3.37;;;;;;;26.17;39.05;97784.25;1733768;80;20999;-84
2022/05/12 07:12:46;;;;;;;12.58;4.25;;;;;;;26.27;39.16;97784.10;1735239;80;21427;-83
2022/05/12 07:15:13;;;;;;;7.58;3.83;;;;;;;26.40;37.57;97780.61;1729038;80;21120;-83
2022/05/12 07:17:43;;;;;;;10.43;3.92;;;;;;;26.70;36.75;97790.07;1720491;80;21071;-83
2022/05/12 07:28:25;;;;;;;6.70;2.87;;;;;;;28.52;33.58;97794.30;1714838;80;20994;-84
2022/05/12 07:31:00;;;;;;;6.85;3.08;;;;;;;28.74;32.18;97778.28;1720644;80;21027;-84
2022/05/12 07:33:34;;;;;;;7.95;2.95;;;;;;;28.97;30.47;97777.80;1733923;80;20998;-84
2022/05/12 07:36:01;;;;;;;5.35;3.08;;;;;;;29.14;31.24;97772.71;1729966;80;21024;-84
2022/05/12 07:38:27;;;;;;;5.60;3.10;;;;;;;29.46;29.97;97769.66;1724380;80;21485;-84
2022/05/12 07:40:53;;;;;;;6.60;2.98;;;;;;;29.74;31.09;97774.27;1727417;80;21542;-84
2022/05/12 07:43:20;;;;;;;5.37;3.05;;;;;;;30.14;30.26;97768.30;1729690;80;21071;-84
2022/05/12 07:45:48;;;;;;;5.35;3.10;;;;;;;30.59;28.93;97763.36;1726938;80;38426;-84
2022/05/12 07:48:14;;;;;;;8.78;4.45;;;;;;;30.75;29.80;97761.39;1724608;80;21983;-84
2022/05/12 07:50:40;;;;;;;13.10;3.70;;;;;;;31.21;29.50;97766.38;1731906;80;21837;-84
2022/05/12 07:53:07;;;;;;;43.50;39.20;;;;;;;31.73;27.36;97766.71;1734069;80;20993;-84
2022/05/12 07:55:33;;;;;;;13.50;12.10;;;;;;;31.29;27.21;97765.05;1724528;81;21559;-84
2022/05/12 07:58:00;;;;;;;11.20;9.25;;;;;;;31.57;25.78;97760.98;1733001;80;20871;-84
2022/05/12 08:00:28;;;;;;;4.42;2.85;;;;;;;30.75;27.70;97764.19;1733945;80;20999;-84
2022/05/12 08:02:56;;;;;;;7.75;3.05;;;;;;;31.27;27.38;97759.06;1732171;80;22052;-84
2022/05/12 08:05:23;;;;;;;8.85;3.27;;;;;;;31.20;27.06;97769.56;1721758;82;21650;-84
2022/05/12 08:07:49;;;;;;;4.45;2.75;;;;;;;31.60;26.15;97762.92;1730537;80;21770;-84
2022/05/12 08:10:16;;;;;;;7.25;2.77;;;;;;;31.01;26.92;97774.61;1731404;80;20933;-84
2022/05/12 08:12:42;;;;;;;9.78;2.60;;;;;;;30.63;26.20;97761.33;1734996;80;21055;-84
2022/05/12 08:15:09;;;;;;;5.53;2.92;;;;;;;30.72;26.25;97770.63;1732959;81;21075;-84
2022/05/12 08:17:38;;;;;;;7.17;2.87;;;;;;;30.50;27.01;97775.66;1726199;80;21540;-84
2022/05/12 08:20:06;;;;;;;6.50;3.02;;;;;;;31.12;26.89;97778.06;1729841;80;21051;-85
2022/05/12 08:22:33;;;;;;;8.68;2.83;;;;;;;31.92;26.70;97783.41;1731944;80;21136;-84
2022/05/12 08:24:59;;;;;;;4.62;2.80;;;;;;;32.59;23.80;97782.58;1720052;80;21560;-84
2022/05/12 08:27:25;;;;;;;4.15;2.92;;;;;;;33.12;23.49;97789.86;1736536;80;21148;-84
2022/05/12 08:29:52;;;;;;;4.75;2.58;;;;;;;33.27;24.45;97781.29;1703054;82;20872;-85
2022/05/12 08:32:18;;;;;;;5.97;2.57;;;;;;;34.07;22.64;97787.98;1738472;80;21045;-85
2022/05/12 08:34:44;;;;;;;4.90;2.98;;;;;;;34.30;22.86;97793.38;1734714;80;21035;-85
2022/05/12 08:37:11;;;;;;;5.40;2.20;;;;;;;34.24;22.03;97789.52;1736467;80;21663;-84
2022/05/12 08:39:37;;;;;;;6.45;2.42;;;;;;;33.25;22.80;97792.79;1732015;80;21157;-84
2022/05/12 08:42:38;;;;;;;4.87;2.65;;;;;;;32.08;23.88;97793.15;1734849;80;21210;-84
2022/05/12 08:45:06;;;;;;;3.87;2.72;;;;;;;30.98;24.79;97801.25;1728429;80;21569;-85
2022/05/12 08:47:44;;;;;;;7.37;2.52;;;;;;;32.35;23.64;97785.45;1729253;80;21056;-84
2022/05/12 08:50:13;;;;;;;;;;;;;;;31.36;24.26;97794.33;1729430;81;21013;-84
2022/05/12 08:53:01;;;;;;;5.97;2.75;;;;;;;30.17;25.62;97789.23;1734308;80;21065;-84
2022/05/12 08:55:32;;;;;;;9.55;2.90;;;;;;;29.84;25.88;97784.34;1716695;81;21111;-84
2022/05/12 08:58:18;;;;;;;7.47;2.90;;;;;;;29.13;27.25;97805.97;1711606;81;21504;-84
2022/05/12 09:01:13;;;;;;;6.97;3.25;;;;;;;29.02;27.55;97791.30;1709262;80;21034;-84
2022/05/12 09:03:56;;;;;;;5.17;3.00;;;;;;;29.95;27.10;97792.01;1721894;80;21497;-84
2022/05/12 09:06:30;;;;;;;14.03;3.47;;;;;;;31.52;25.69;97794.27;1718657;80;21174;-84
2022/05/12 09:09:34;;;;;;;11.45;3.17;;;;;;;30.51;26.70;97788.45;1723272;80;21150;-84
2022/05/12 09:12:06;;;;;;;12.10;3.33;;;;;;;30.80;26.50;97791.70;1730410;80;20986;-84
2022/05/12 09:14:38;;;;;;;7.17;2.98;;;;;;;31.30;25.94;97795.22;1733565;80;21103;-84
2022/05/12 09:17:04;;;;;;;6.45;3.05;;;;;;;32.04;24.99;97796.00;1727900;80;21062;-84
2022/05/12 09:19:30;;;;;;;8.78;4.40;;;;;;;30.78;26.29;97807.50;1732740;80;21830;-84
2022/05/12 09:21:57;;;;;;;4.80;3.08;;;;;;;30.35;26.68;97809.98;1730497;80;20906;-84
2022/05/12 09:24:23;;;;;;;5.75;4.05;;;;;;;30.09;27.25;97802.29;1726206;80;20989;-84
2022/05/12 09:26:54;;;;;;;8.15;6.47;;;;;;;29.62;27.97;97800.48;1731702;80;21113;-84
2022/05/12 09:29:24;;;;;;;6.05;3.12;;;;;;;29.67;28.28;97813.41;1710440;80;21129;-84
2022/05/12 09:32:07;;;;;;;3.98;2.60;;;;;;;30.32;27.81;97824.77;1704132;81;21841;-84
2022/05/12 09:34:36;;;;;;;7.17;2.80;;;;;;;30.53;27.15;97817.56;1669284;84;21064;-89
2022/05/12 09:37:18;;;;;;;6.12;2.95;;;;;;;31.35;26.74;97824.12;1730462;80;21084;-89
2022/05/12 09:39:59;;;;;;;5.60;2.62;;;;;;;30.35;27.34;97815.58;1725027;80;21081;-89
2022/05/12 09:42:34;;;;;;;8.58;3.35;;;;;;;31.46;26.58;97814.97;1735377;80;21104;-89
2022/05/12 09:45:20;;;;;;;3.50;2.65;;;;;;;31.63;26.79;97825.70;1718031;80;21159;-88
2022/05/12 09:47:46;;;;;;;5.80;3.08;;;;;;;31.30;26.77;97819.80;1724674;80;21032;-89
2022/05/12 09:50:18;;;;;;;4.08;2.70;;;;;;;31.40;26.61;97811.05;1729436;80;20898;-90
2022/05/12 09:52:46;;;;;;;8.13;3.22;;;;;;;32.91;24.54;97822.00;1726282;80;21018;-88
2022/05/12 09:55:23;;;;;;;6.83;2.67;;;;;;;34.36;23.39;97818.33;1726501;80;21008;-90
2022/05/12 09:58:08;;;;;;;22.27;3.07;;;;;;;35.04;22.30;97817.22;1715551;81;21120;-90
2022/05/12 10:00:48;;;;;;;14.38;2.75;;;;;;;35.87;20.54;97809.14;1657462;83;21832;-90
2022/05/12 10:09:08;;;;;;;5.78;2.55;;;;;;;36.56;20.94;97802.75;1732947;80;21535;-90
2022/05/12 10:12:06;;;;;;;6.80;2.83;;;;;;;37.52;19.13;97795.49;1727451;80;21238;-85
2022/05/12 10:14:53;;;;;;;10.82;2.90;;;;;;;35.72;20.79;97793.16;1722979;80;21068;-85
2022/05/12 10:17:48;;;;;;;7.17;3.22;;;;;;;35.65;21.01;97809.70;1729527;80;21115;-85
2022/05/12 10:20:22;;;;;;;11.08;2.90;;;;;;;35.22;20.89;97801.81;1726201;80;21050;-85
2022/05/12 10:23:11;;;;;;;9.03;3.67;;;;;;;33.15;22.60;97805.81;1732926;80;21508;-85
2022/05/12 10:26:08;;;;;;;10.00;3.22;;;;;;;32.80;22.70;97805.34;1726685;80;21275;-85
2022/05/12 10:29:10;;;;;;;4.95;2.30;;;;;;;32.11;22.74;97796.48;1734060;80;21065;-85
2022/05/12 10:32:33;;;;;;;5.12;2.67;;;;;;;31.11;23.54;97790.47;1729944;80;20994;-85
2022/05/12 10:35:22;;;;;;;5.55;2.77;;;;;;;30.32;24.87;97791.24;1657600;84;21476;-85
2022/05/12 10:38:07;;;;;;;5.50;2.45;;;;;;;29.64;25.61;97792.48;1641058;86;21060;-85
2022/05/12 10:40:43;;;;;;;12.13;3.85;;;;;;;28.91;26.37;97801.73;1690786;81;21126;-84
2022/05/12 10:43:46;;;;;;;5.08;3.15;;;;;;;28.47;26.39;97807.88;1724759;80;21138;-84
2022/05/12 10:46:32;;;;;;;7.30;3.42;;;;;;;28.08;27.10;97815.09;1726796;81;21025;-85
2022/05/12 10:49:15;;;;;;;9.33;2.70;;;;;;;28.74;26.08;97816.52;1726224;80;21103;-85
2022/05/12 10:51:56;;;;;;;7.58;2.83;;;;;;;28.81;25.91;97816.49;1721205;80;21136;-85
2022/05/12 10:55:04;;;;;;;8.93;3.30;;;;;;;30.17;24.46;97813.58;1732033;80;22517;-85
2022/05/12 10:57:51;;;;;;;8.10;3.72;;;;;;;31.90;23.28;97817.28;1734935;80;21029;-85
2022/05/12 11:00:53;;;;;;;14.18;3.62;;;;;;;32.99;21.82;97816.41;1733621;80;21092;-85
2022/05/12 11:03:25;;;;;;;10.65;3.20;;;;;;;32.70;21.41;97824.59;1735704;80;21084;-85
2022/05/12 11:05:55;;;;;;;5.72;4.20;;;;;;;33.19;20.83;97816.98;1702585;81;21703;-85
2022/05/12 11:08:25;;;;;;;4.47;2.85;;;;;;;32.82;21.71;97816.94;1669670;84;21513;-85
2022/05/12 11:10:54;;;;;;;10.03;6.72;;;;;;;32.24;22.20;97824.86;1727707;80;21461;-85
2022/05/12 11:13:47;;;;;;;8.33;5.58;;;;;;;32.33;22.26;97819.34;1734299;80;21044;-85
2022/05/12 11:16:26;;;;;;;7.40;4.65;;;;;;;31.42;22.90;97825.41;1720881;81;21537;-85
2022/05/12 11:19:19;;;;;;;9.23;4.62;;;;;;;31.60;22.54;97826.53;1725948;80;21065;-85
2022/05/12 11:22:13;;;;;;;8.38;3.25;;;;;;;33.03;21.72;97827.55;1719401;81;21473;-85
2022/05/12 11:25:05;;;;;;;7.72;2.75;;;;;;;32.11;22.30;97811.28;1734525;80;21571;-85
2022/05/12 11:27:52;;;;;;;5.22;3.08;;;;;;;31.16;23.46;97815.77;1731146;80;21470;-85
2022/05/12 11:30:29;;;;;;;7.15;2.42;;;;;;;30.59;24.35;97815.91;1726911;80;21052;-85
2022/05/12 11:33:12;;;;;;;7.70;2.90;;;;;;;31.56;23.71;97818.20;1737141;80;21218;-85
2022/05/12 11:35:43;;;;;;;5.78;2.72;;;;;;;33.03;22.79;97825.53;1704782;80;21870;-85
2022/05/12 11:38:11;;;;;;;5.33;2.65;;;;;;;34.87;20.88;97813.48;1730870;80;21048;-85
2022/05/12 11:40:48;;;;;;;3.80;2.87;;;;;;;36.51;19.82;97816.05;1730051;80;21030;-85
2022/05/12 11:47:03;;;;;;;7.45;2.25;;;;;;;35.32;19.94;97818.98;1716520;80;20996;-86
2022/05/12 11:49:58;;;;;;;6.22;2.50;;;;;;;35.47;19.75;97810.91;1727689;80;21299;-85
2022/05/12 11:52:45;;;;;;;7.45;2.77;;;;;;;34.89;20.36;97816.66;1719785;80;21036;-85
2022/05/12 11:55:35;;;;;;;8.38;2.83;;;;;;;33.55;21.64;97819.16;1737964;80;21159;-88
2022/05/12 11:58:12;;;;;;;9.75;3.00;;;;;;;32.90;22.39;97818.20;1721105;81;21629;-87
2022/05/12 12:00:43;;;;;;;;;;;;;;;32.63;22.83;97819.73;1726167;80;21625;-88
2022/05/12 12:03:23;;;;;;;6.03;3.27;;;;;;;31.36;24.43;97817.30;1723798;80;21234;-87
2022/05/12 12:05:55;;;;;;;4.53;2.83;;;;;;;31.36;24.43;97817.30;1729421;80;21104;-87
2022/05/12 12:08:40;;;;;;;8.00;3.22;;;;;;;30.64;25.29;97820.83;1722684;80;21643;-88